»·PEaware :: WAT169 KSNA-KLAS

WAT169 :: KSNA-KLAS

FLIGHT INFORMATION

Flight Status: Arrived
Operator: Unknown
More flights by this operator :: More flights under this callsign
Pilot: Marty P. (27464)
Aircraft: BOMBARDIER BD-100 CHALLENGER 300
(CL30)
More flights by this aircraft type
Origin: KSNA John Wayne-Orange Co
United States
Destination: KLAS McCarran Intl
United States
More flights between these airports :: More routes between these airports
Route: +FINZZ2 MISEN KEPEC6
File this flight plan on PilotEdge
Remarks:
Altitude:
(Current/Filed)
27,000ft
Speed:
(Current/Filed)
470kts
Departed: 25-Mar-20 02:48 PM
Arrived: 25-Mar-20 03:32 PM
Distance/Time
Traveled:
197nm/0:44
Distance/Time
To Go:
Arrived

Flight Plot

Page will automatically refresh every two minutes.

Flight plan parsing failed; only flown route is shown


Map Options




Map Legend


Flown Route
Filed Route
Departure Airport
Arrival Airport
Navaid (VOR, NDB)
Fix

Horizontal Profiles

Position Reports

Time Latitude Longitude Heading Altitude Ground
Speed
25-Mar-20 14:05 33.674978 -117.865011 0 63ft 0kts
25-Mar-20 14:06 33.674978 -117.865011 118 63ft 0kts
25-Mar-20 14:07 33.674978 -117.865011 118 63ft 0kts
25-Mar-20 14:08 33.674978 -117.865011 118 63ft 0kts
25-Mar-20 14:09 33.674978 -117.865011 118 63ft 0kts
25-Mar-20 14:10 33.674978 -117.865011 118 63ft 0kts
25-Mar-20 14:11 33.674978 -117.865011 118 63ft 0kts
25-Mar-20 14:12 33.674978 -117.865011 118 63ft 0kts
25-Mar-20 14:13 33.674978 -117.865011 118 63ft 0kts
25-Mar-20 14:14 33.674978 -117.865011 118 63ft 0kts
25-Mar-20 14:15 33.674978 -117.865011 118 63ft 0kts
25-Mar-20 14:16 33.674978 -117.865011 118 63ft 0kts
25-Mar-20 14:17 33.674978 -117.865011 118 63ft 0kts
25-Mar-20 14:18 33.674978 -117.865011 118 63ft 0kts
25-Mar-20 14:19 33.674978 -117.865011 118 63ft 0kts
25-Mar-20 14:20 33.674978 -117.865011 118 63ft 0kts
25-Mar-20 14:21 33.674978 -117.865011 118 63ft 0kts
25-Mar-20 14:22 33.674978 -117.865011 118 63ft 0kts
25-Mar-20 14:23 33.674978 -117.865011 118 63ft 0kts
25-Mar-20 14:24 33.674978 -117.865011 118 63ft 0kts
25-Mar-20 14:25 33.674978 -117.865011 118 63ft 0kts
25-Mar-20 14:26 33.674978 -117.865011 118 63ft 0kts
25-Mar-20 14:27 33.674978 -117.865011 118 63ft 0kts
25-Mar-20 14:28 33.674975 -117.865006 118 63ft 0kts
25-Mar-20 14:29 33.675180 -117.865406 118 62ft 0kts
25-Mar-20 14:30 33.675180 -117.865406 118 62ft 0kts
25-Mar-20 14:31 33.675178 -117.865401 118 63ft 0kts
25-Mar-20 14:32 33.675304 -117.865744 28 63ft 1kts
25-Mar-20 14:33 33.675282 -117.865759 27 62ft 0kts
25-Mar-20 14:34 33.675282 -117.865759 27 62ft 0kts
25-Mar-20 14:35 33.675282 -117.865759 27 62ft 0kts
25-Mar-20 14:36 33.675282 -117.865759 27 62ft 0kts
25-Mar-20 14:37 33.675282 -117.865759 27 62ft 0kts
25-Mar-20 14:38 33.675282 -117.865759 27 62ft 0kts
25-Mar-20 14:39 33.675282 -117.865759 27 62ft 0kts
25-Mar-20 14:40 33.675282 -117.865759 27 62ft 0kts
25-Mar-20 14:41 33.675282 -117.865759 27 62ft 0kts
25-Mar-20 14:42 33.675339 -117.865716 31 62ft 1kts
25-Mar-20 14:43 33.677076 -117.864591 27 62ft 10kts
25-Mar-20 14:44 33.680662 -117.863098 299 62ft 0kts
25-Mar-20 14:45 33.680662 -117.863098 299 62ft 0kts
25-Mar-20 14:46 33.680451 -117.865827 207 63ft 32kts
25-Mar-20 14:47 33.641697 -117.885776 190 1707ft 191kts
25-Mar-20 14:48 33.586433 -117.896474 190 4303ft 210kts
25-Mar-20 14:49 33.534668 -117.941303 224 6015ft 258kts
25-Mar-20 14:50 33.496369 -118.007702 285 7578ft 245kts
25-Mar-20 14:51 33.539750 -118.076659 308 9653ft 276kts
25-Mar-20 14:52 33.604440 -118.120580 10 12036ft 326kts
25-Mar-20 14:53 33.688058 -118.072243 20 13008ft 338kts
25-Mar-20 14:54 33.774009 -118.022116 19 16034ft 363kts
25-Mar-20 14:55 33.865432 -117.968701 19 17017ft 379kts
25-Mar-20 14:56 33.955888 -117.899259 31 18243ft 392kts
25-Mar-20 14:57 34.045165 -117.817817 32 21038ft 418kts
25-Mar-20 14:58 34.129065 -117.718501 49 23390ft 447kts
25-Mar-20 14:59 34.209324 -117.599533 50 25493ft 469kts
25-Mar-20 15:00 34.293329 -117.474411 50 27104ft 497kts
25-Mar-20 15:01 34.384763 -117.337649 51 27128ft 558kts
25-Mar-20 15:02 34.485909 -117.185745 51 27083ft 583kts
25-Mar-20 15:03 34.588744 -117.033322 49 27037ft 580kts
25-Mar-20 15:04 34.692899 -116.881317 49 27041ft 580kts
25-Mar-20 15:05 34.796722 -116.729151 49 27029ft 582kts
25-Mar-20 15:06 34.910870 -116.590471 35 26921ft 566kts
25-Mar-20 15:07 35.032466 -116.471861 34 25670ft 540kts
25-Mar-20 15:08 35.141478 -116.353951 42 23660ft 519kts
25-Mar-20 15:09 35.238637 -116.233076 43 23973ft 508kts
25-Mar-20 15:10 35.338644 -116.107342 43 23993ft 511kts
25-Mar-20 15:11 35.436160 -115.984155 43 20492ft 497kts
25-Mar-20 15:12 35.529094 -115.866369 43 16802ft 452kts
25-Mar-20 15:13 35.611311 -115.761830 43 14330ft 392kts
25-Mar-20 15:14 35.683231 -115.670138 43 12944ft 334kts
25-Mar-20 15:15 35.747776 -115.589040 30 13042ft 329kts
25-Mar-20 15:16 35.832725 -115.571759 355 13061ft 311kts
25-Mar-20 15:17 35.920378 -115.566452 355 13042ft 324kts
25-Mar-20 15:18 35.990906 -115.500252 68 13024ft 365kts
25-Mar-20 15:19 36.026197 -115.390506 71 12427ft 317kts
25-Mar-20 15:20 36.024575 -115.287706 99 10524ft 290kts
25-Mar-20 15:21 36.018047 -115.194812 98 9145ft 251kts
25-Mar-20 15:23 36.012453 -115.112525 98 8010ft 233kts
25-Mar-20 15:24 36.007130 -115.027547 97 8025ft 257kts
25-Mar-20 15:25 36.001784 -114.939170 97 8023ft 248kts
25-Mar-20 15:26 36.014557 -114.861476 26 7708ft 261kts
25-Mar-20 15:27 36.065061 -114.904482 291 5593ft 240kts
25-Mar-20 15:28 36.075414 -114.973961 262 4685ft 181kts
25-Mar-20 15:29 36.073830 -115.037353 265 3633ft 179kts
25-Mar-20 15:30 36.073674 -115.091947 266 2756ft 138kts
25-Mar-20 15:31 36.073595 -115.133829 271 2188ft 88kts
25-Mar-20 15:32 36.074397 -115.145211 299 2188ft 11kts
25-Mar-20 15:33 36.077073 -115.146549 0 2188ft 17kts
25-Mar-20 15:34 36.080144 -115.147720 65 2188ft 2kts
25-Mar-20 15:35 36.080343 -115.147220 64 2188ft 0kts

Navigation Log

Ident Type
Flight plan parsing failed, navigation log unavailable